createdAt,value
2023-03-28T00:01:09.035Z,1.00
2023-03-28T00:03:39.667Z,0.95
2023-03-28T00:06:16.530Z,1.02
2023-03-28T00:08:46.107Z,1.08
2023-03-28T00:11:20.042Z,1.00
2023-03-28T00:13:53.565Z,1.10
2023-03-28T00:16:21.830Z,1.17
2023-03-28T00:18:51.104Z,1.08
2023-03-28T00:21:29.249Z,1.20
2023-03-28T00:24:01.969Z,1.10
2023-03-28T00:26:32.520Z,0.90
2023-03-28T00:29:03.546Z,1.10
2023-03-28T00:31:32.379Z,1.00
2023-03-28T00:34:00.042Z,1.00
2023-03-28T00:36:29.547Z,1.00
2023-03-28T00:38:57.848Z,0.98
2023-03-28T00:41:31.302Z,1.10
2023-03-28T00:44:00.005Z,1.00
2023-03-28T00:46:33.784Z,1.00
2023-03-28T00:49:07.547Z,1.13
2023-03-28T00:51:39.309Z,1.00
2023-03-28T00:54:10.035Z,1.13
2023-03-28T00:56:38.633Z,1.10
2023-03-28T00:59:12.167Z,1.30
2023-03-28T01:01:39.898Z,1.27
2023-03-28T01:04:10.347Z,1.40
2023-03-28T01:06:45.422Z,1.13
2023-03-28T01:09:17.167Z,1.02
2023-03-28T01:11:49.759Z,1.10
2023-03-28T01:14:20.840Z,1.08
2023-03-28T01:16:51.274Z,1.10
2023-03-28T01:19:30.116Z,1.10
2023-03-28T01:22:16.106Z,1.23
2023-03-28T01:25:16.660Z,1.20
2023-03-28T01:28:19.769Z,0.93
2023-03-28T01:31:13.889Z,1.20
2023-03-28T01:34:18.085Z,1.10
2023-03-28T01:37:05.644Z,0.95
2023-03-28T01:40:06.357Z,1.20
2023-03-28T01:42:51.857Z,1.00
2023-03-28T01:45:26.232Z,1.10
2023-03-28T01:48:06.860Z,1.13
2023-03-28T01:50:44.409Z,1.00
2023-03-28T01:53:21.741Z,1.00
2023-03-28T01:56:10.554Z,0.93
2023-03-28T01:58:46.599Z,1.00
2023-03-28T02:01:26.447Z,1.00
2023-03-28T02:04:06.437Z,0.80
2023-03-28T02:06:57.481Z,1.00
2023-03-28T02:09:32.490Z,0.98
2023-03-28T02:12:48.951Z,1.23
2023-03-28T02:15:35.208Z,1.17
2023-03-28T02:18:29.651Z,1.05
2023-03-28T02:21:21.098Z,1.13
2023-03-28T02:24:05.179Z,1.20
2023-03-28T02:26:54.575Z,1.00
2023-03-28T02:30:01.414Z,1.20
2023-03-28T02:32:34.204Z,1.00
2023-03-28T02:35:05.062Z,0.90
2023-03-28T02:37:49.693Z,1.10
2023-03-28T02:40:40.608Z,1.00
2023-03-28T02:43:47.065Z,1.10
2023-03-28T02:46:41.157Z,1.02
2023-03-28T02:49:43.845Z,1.10
2023-03-28T02:52:23.674Z,1.10
2023-03-28T02:54:58.033Z,0.95
2023-03-28T02:57:48.678Z,1.00
2023-03-28T03:00:20.534Z,0.90
2023-03-28T03:02:51.698Z,0.82
2023-03-28T03:05:21.578Z,1.00
2023-03-28T03:07:50.452Z,1.00
2023-03-28T03:10:21.098Z,1.30
2023-03-28T03:12:48.960Z,0.80
2023-03-28T03:15:17.267Z,0.90
2023-03-28T03:17:53.132Z,0.80
2023-03-28T03:20:26.591Z,0.90
2023-03-28T03:22:54.928Z,0.73
2023-03-28T03:25:22.392Z,0.60
2023-03-28T03:27:56.896Z,0.68
2023-03-28T03:30:24.383Z,0.80
2023-03-28T03:33:18.008Z,0.60
2023-03-28T03:35:48.568Z,0.80
2023-03-28T03:38:18.495Z,0.82
2023-03-28T03:40:45.976Z,1.02
2023-03-28T03:43:14.329Z,0.98
2023-03-28T03:45:45.963Z,1.05
2023-03-28T03:48:13.950Z,0.90
2023-03-28T03:50:41.853Z,0.90
2023-03-28T03:53:16.828Z,0.77
2023-03-28T03:56:01.598Z,1.00
2023-03-28T03:58:35.068Z,0.80
2023-03-28T04:01:09.896Z,0.95
2023-03-28T04:03:37.899Z,1.05
2023-03-28T04:06:06.086Z,0.80
2023-03-28T04:08:34.288Z,0.90
2023-03-28T04:11:02.553Z,0.82
2023-03-28T04:13:36.952Z,0.98
2023-03-28T04:16:04.721Z,0.95
2023-03-28T04:21:09.795Z,0.82
2023-03-28T04:23:43.683Z,0.80
2023-03-28T04:26:26.334Z,0.90
2023-03-28T04:29:04.276Z,1.08
2023-03-28T04:31:36.065Z,0.90
2023-03-28T04:34:41.652Z,0.90
2023-03-28T04:37:13.354Z,0.90
2023-03-28T04:39:49.790Z,1.10
2023-03-28T04:42:55.756Z,1.07
2023-03-28T04:45:34.191Z,1.27
2023-03-28T04:48:12.169Z,1.40
2023-03-28T04:50:39.720Z,1.60
2023-03-28T04:53:07.296Z,1.50
2023-03-28T04:55:36.118Z,1.42
2023-03-28T04:58:20.786Z,1.40
2023-03-28T05:00:49.744Z,2.00
2023-03-28T05:03:26.273Z,1.50
2023-03-28T05:06:04.080Z,1.85
2023-03-28T05:08:32.714Z,1.45
2023-03-28T05:11:03.736Z,1.40
2023-03-28T05:13:34.901Z,1.48
2023-03-28T05:16:12.118Z,1.40
2023-03-28T05:19:06.522Z,2.05
2023-03-28T05:22:01.952Z,1.45
2023-03-28T05:24:30.889Z,1.40
2023-03-28T05:27:18.081Z,1.50
2023-03-28T05:30:35.384Z,1.70
2023-03-28T05:33:02.997Z,1.50
2023-03-28T05:35:54.302Z,1.45
2023-03-28T05:38:21.999Z,1.50
2023-03-28T05:40:54.004Z,1.83
2023-03-28T05:43:23.168Z,1.88
2023-03-28T05:49:45.437Z,1.20
2023-03-28T05:52:17.273Z,1.52
2023-03-28T05:54:51.030Z,1.20
2023-03-28T05:57:22.281Z,0.90
2023-03-28T05:59:52.660Z,1.40
2023-03-28T06:02:24.403Z,1.20
2023-03-28T06:04:58.011Z,1.00
2023-03-28T06:07:39.223Z,1.30
2023-03-28T06:10:12.346Z,1.10
2023-03-28T06:12:41.518Z,1.30
2023-03-28T06:15:10.560Z,1.23
2023-03-28T06:17:42.696Z,1.70
2023-03-28T06:20:10.868Z,1.40
2023-03-28T06:22:39.810Z,2.30
2023-03-28T06:25:20.121Z,2.00
2023-03-28T06:28:03.647Z,2.00
2023-03-28T06:30:32.571Z,2.05
2023-03-28T06:33:01.460Z,2.08
2023-03-28T06:35:29.786Z,1.80
2023-03-28T06:38:00.681Z,1.80
2023-03-28T06:40:28.306Z,2.50
2023-03-28T06:42:56.138Z,2.42
2023-03-28T06:45:38.142Z,2.63
2023-03-28T06:48:09.849Z,2.40
2023-03-28T06:51:04.118Z,2.00
2023-03-28T06:53:32.775Z,1.80
2023-03-28T06:56:00.538Z,2.22
2023-03-28T06:58:30.570Z,1.90
2023-03-28T07:01:06.044Z,2.90
2023-03-28T07:03:46.087Z,2.30
2023-03-28T07:06:23.213Z,2.65
2023-03-28T07:08:54.736Z,2.33
2023-03-28T07:11:38.932Z,2.00
2023-03-28T07:14:06.624Z,1.98
2023-03-28T07:16:34.352Z,1.83
2023-03-28T07:19:03.342Z,1.90
2023-03-28T07:21:34.574Z,2.38
2023-03-28T07:24:30.089Z,5.40
2023-03-28T07:27:16.143Z,3.78
2023-03-28T07:29:46.227Z,3.10
2023-03-28T07:32:14.488Z,3.65
2023-03-28T07:34:45.215Z,2.80
2023-03-28T07:37:18.761Z,2.92
2023-03-28T07:40:07.133Z,2.70
2023-03-28T07:42:35.954Z,2.55
2023-03-28T07:45:03.911Z,2.08
2023-03-28T07:47:31.750Z,2.25
2023-03-28T07:49:59.392Z,2.13
2023-03-28T07:52:28.215Z,1.90
2023-03-28T07:54:56.300Z,1.90
2023-03-28T07:57:26.066Z,1.88
2023-03-28T08:00:00.416Z,1.50
2023-03-28T08:02:30.615Z,1.92
2023-03-28T08:04:58.361Z,1.90
2023-03-28T08:39:42.702Z,1.42
2023-03-28T08:42:24.605Z,1.70
2023-03-28T08:45:08.963Z,1.98
2023-03-28T08:47:44.030Z,1.40
2023-03-28T08:50:23.962Z,1.50
2023-03-28T08:52:52.430Z,1.33
2023-03-28T08:55:42.795Z,1.88
2023-03-28T08:58:21.206Z,1.70
2023-03-28T09:00:50.766Z,1.67
2023-03-28T09:03:23.361Z,1.40
2023-03-28T09:06:14.674Z,1.35
2023-03-28T09:09:22.579Z,1.30
2023-03-28T09:12:31.103Z,1.27
2023-03-28T09:15:19.139Z,1.40
2023-03-28T09:18:15.815Z,1.20
2023-03-28T09:21:01.738Z,1.00
2023-03-28T09:23:45.674Z,1.10
2023-03-28T09:26:47.904Z,1.00
2023-03-28T09:29:25.035Z,1.08
2023-03-28T09:31:59.743Z,1.07
2023-03-28T09:34:37.290Z,1.00
2023-03-28T09:37:28.302Z,1.33
2023-03-28T09:40:01.488Z,1.10
2023-03-28T09:43:10.594Z,0.90
2023-03-28T09:46:06.601Z,0.85
2023-03-28T09:48:43.108Z,0.93
2023-03-28T09:51:16.994Z,0.70
2023-03-28T09:53:44.728Z,1.20
2023-03-28T09:56:15.475Z,1.00
2023-03-28T09:58:50.058Z,0.90
2023-03-28T10:01:32.985Z,1.00
2023-03-28T10:04:19.058Z,1.02
2023-03-28T10:07:11.356Z,1.10
2023-03-28T10:09:57.405Z,1.40
2023-03-28T10:12:34.037Z,1.50
2023-03-28T10:15:01.749Z,1.42
2023-03-28T10:17:51.046Z,1.45
2023-03-28T10:20:25.025Z,1.58
2023-03-28T10:22:57.242Z,1.75
2023-03-28T10:25:38.926Z,1.85
2023-03-28T10:28:13.980Z,2.00
2023-03-28T10:30:42.519Z,1.23
2023-03-28T10:33:17.040Z,1.70
2023-03-28T10:36:12.822Z,1.67
2023-03-28T10:38:43.373Z,1.50
2023-03-28T10:41:29.686Z,1.60
2023-03-28T10:44:24.951Z,1.17
2023-03-28T10:47:06.325Z,1.52
2023-03-28T10:49:51.186Z,1.50
2023-03-28T10:52:44.436Z,1.50
2023-03-28T10:55:23.479Z,1.30
2023-03-28T10:58:34.061Z,1.67
2023-03-28T11:01:21.205Z,1.35
2023-03-28T11:04:28.007Z,1.73
2023-03-28T11:07:28.852Z,1.25
2023-03-28T11:10:25.450Z,0.68
2023-03-28T11:13:19.385Z,0.73
2023-03-28T11:15:56.269Z,0.70
2023-03-28T11:18:38.326Z,0.65
2023-03-28T11:21:32.893Z,0.60
2023-03-28T11:24:23.080Z,0.90
2023-03-28T11:27:20.149Z,0.80
2023-03-28T11:30:21.106Z,1.20
2023-03-28T11:33:25.278Z,1.40
2023-03-28T11:36:08.460Z,0.85
2023-03-28T11:38:48.818Z,0.80
2023-03-28T11:41:27.568Z,0.60
2023-03-28T11:44:27.162Z,0.80
2023-03-28T11:47:15.275Z,0.70
2023-03-28T11:50:08.954Z,0.60
2023-03-28T11:53:14.533Z,0.77
2023-03-28T11:56:11.528Z,0.80
2023-03-28T11:59:06.237Z,0.80
2023-03-28T12:01:41.713Z,0.68
2023-03-28T12:07:07.408Z,0.75
2023-03-28T12:09:58.875Z,0.83
2023-03-28T12:12:35.644Z,0.88
2023-03-28T12:15:30.267Z,0.90
2023-03-28T12:18:22.901Z,0.70
2023-03-28T12:21:21.819Z,0.70
2023-03-28T12:24:13.902Z,0.75
2023-03-28T12:30:37.485Z,0.80
2023-03-28T12:33:29.926Z,1.02
2023-03-28T12:36:42.893Z,0.82
2023-03-28T12:39:36.042Z,0.82
2023-03-28T12:42:14.868Z,0.80
2023-03-28T12:44:59.787Z,0.70
2023-03-28T12:47:39.051Z,0.95
2023-03-28T12:50:25.377Z,1.00
2023-03-28T12:52:54.180Z,1.40
2023-03-28T12:55:28.931Z,0.90
2023-03-28T12:58:35.303Z,1.10
2023-03-28T13:01:19.270Z,0.90
2023-03-28T13:04:32.926Z,0.93
2023-03-28T13:10:53.013Z,0.80
2023-03-28T13:13:40.780Z,1.00
2023-03-28T13:16:22.859Z,1.00
2023-03-28T13:19:09.706Z,1.00
2023-03-28T13:22:13.284Z,1.17
2023-03-28T13:29:20.974Z,1.10
2023-03-28T13:31:50.301Z,0.90
2023-03-28T13:35:37.516Z,1.15
2023-03-28T13:38:47.536Z,1.20
2023-03-28T13:42:33.492Z,1.00
2023-03-28T13:49:28.481Z,1.17
2023-03-28T13:52:26.093Z,1.05
2023-03-28T13:55:48.682Z,1.20
2023-03-28T13:58:56.070Z,1.45
2023-03-28T14:02:26.794Z,1.30
2023-03-28T14:05:42.403Z,1.42
2023-03-28T14:08:30.674Z,1.25
2023-03-28T14:15:00.620Z,1.30
2023-03-28T14:18:15.288Z,1.20
2023-03-28T14:20:45.699Z,0.95
2023-03-28T14:23:35.597Z,1.40
2023-03-28T14:26:13.672Z,1.42
2023-03-28T14:28:51.567Z,1.23
2023-03-28T14:31:37.584Z,1.20
2023-03-28T14:34:45.486Z,1.42
2023-03-28T14:37:18.585Z,1.23
2023-03-28T14:39:55.808Z,1.40
2023-03-28T14:42:28.766Z,1.25
2023-03-28T14:44:56.735Z,1.25
2023-03-28T14:47:34.377Z,1.30
2023-03-28T14:50:09.085Z,1.38
2023-03-28T14:52:41.035Z,1.30
2023-03-28T14:55:21.101Z,1.40
2023-03-28T14:57:53.732Z,1.20
2023-03-28T15:00:42.605Z,1.60
2023-03-28T15:03:19.037Z,1.45
2023-03-28T15:05:50.106Z,1.50
2023-03-28T15:08:34.471Z,1.10
2023-03-28T15:11:08.452Z,1.00
2023-03-28T15:13:39.051Z,1.20
2023-03-28T15:16:10.231Z,1.23
2023-03-28T15:18:46.859Z,1.20
2023-03-28T15:21:15.378Z,1.30
2023-03-28T15:23:50.690Z,1.63
2023-03-28T15:29:08.923Z,1.30
2023-03-28T15:31:40.934Z,1.30
2023-03-28T15:34:18.741Z,1.20
2023-03-28T15:36:50.646Z,1.25
2023-03-28T15:39:44.598Z,1.05
2023-03-28T15:42:12.190Z,1.23
2023-03-28T15:44:43.420Z,1.10
2023-03-28T15:47:15.127Z,1.15
2023-03-28T15:49:42.791Z,1.15
2023-03-28T15:52:21.532Z,1.10
2023-03-28T15:54:54.366Z,1.30
2023-03-28T15:57:26.155Z,1.30
2023-03-28T15:59:58.117Z,1.23
2023-03-28T16:02:32.079Z,1.20
2023-03-28T16:05:00.802Z,1.20
2023-03-28T16:07:35.982Z,1.40
2023-03-28T16:10:04.320Z,1.50
2023-03-28T16:12:37.012Z,1.20
2023-03-28T16:15:31.543Z,1.55
2023-03-28T16:18:08.015Z,1.60
2023-03-28T16:20:47.695Z,1.52
2023-03-28T16:23:15.196Z,1.40
2023-03-28T16:25:43.793Z,1.30
2023-03-28T16:28:17.708Z,1.33
2023-03-28T16:30:46.350Z,1.35
2023-03-28T16:33:14.194Z,1.35
2023-03-28T16:35:43.626Z,1.60
2023-03-28T16:38:11.941Z,1.60
2023-03-28T16:40:39.617Z,1.38
2023-03-28T16:43:08.019Z,1.50
2023-03-28T16:45:38.753Z,1.35
2023-03-28T16:48:07.347Z,1.50
2023-03-28T16:50:36.253Z,1.75
2023-03-28T16:53:06.757Z,1.50
2023-03-28T16:55:34.336Z,1.50
2023-03-28T16:58:03.059Z,1.88
2023-03-28T17:00:38.991Z,2.22
2023-03-28T17:03:07.164Z,1.80
2023-03-28T17:05:38.651Z,1.70
2023-03-28T17:08:06.434Z,1.80
2023-03-28T17:10:34.893Z,1.90
2023-03-28T17:13:05.046Z,2.03
2023-03-28T17:15:33.804Z,2.40
2023-03-28T17:18:02.080Z,2.80
2023-03-28T17:20:31.217Z,2.15
2023-03-28T17:22:58.804Z,1.75
2023-03-28T17:25:26.840Z,2.28
2023-03-28T17:27:54.607Z,2.30
2023-03-28T17:30:22.198Z,2.65
2023-03-28T17:32:51.423Z,2.42
2023-03-28T17:35:19.279Z,2.20
2023-03-28T17:37:47.311Z,2.15
2023-03-28T17:40:15.620Z,2.42
2023-03-28T17:42:43.213Z,2.30
2023-03-28T17:45:10.929Z,2.40
2023-03-28T17:47:39.566Z,2.20
2023-03-28T17:50:07.648Z,2.30
2023-03-28T17:52:35.514Z,2.40
2023-03-28T17:55:03.512Z,2.53
2023-03-28T17:57:31.665Z,2.53
2023-03-28T18:00:01.256Z,2.60
2023-03-28T18:02:29.174Z,2.70
2023-03-28T18:05:11.193Z,2.63
2023-03-28T18:07:40.380Z,2.53
2023-03-28T18:10:09.692Z,2.80
2023-03-28T18:15:23.933Z,4.15
2023-03-28T18:17:52.062Z,3.65
2023-03-28T18:20:21.774Z,3.78
2023-03-28T18:22:50.927Z,3.80
2023-03-28T18:25:18.685Z,4.00
2023-03-28T18:27:46.440Z,3.90
2023-03-28T18:30:14.944Z,3.97
2023-03-28T18:32:43.271Z,3.70
2023-03-28T18:35:11.504Z,3.92
2023-03-28T18:37:38.917Z,3.85
2023-03-28T18:40:11.179Z,4.22
2023-03-28T18:42:38.887Z,4.10
2023-03-28T18:45:07.760Z,3.78
2023-03-28T18:47:38.712Z,4.18
2023-03-28T18:50:07.574Z,4.13
2023-03-28T18:52:35.155Z,4.45
2023-03-28T18:55:02.582Z,4.03
2023-03-28T18:57:30.154Z,4.10
2023-03-28T18:59:57.718Z,4.07
2023-03-28T19:02:26.628Z,4.20
2023-03-28T19:04:54.735Z,4.15
2023-03-28T19:07:22.593Z,4.25
2023-03-28T19:09:50.279Z,4.20
2023-03-28T19:12:17.837Z,4.47
2023-03-28T19:14:45.643Z,4.40
2023-03-28T19:17:13.177Z,4.75
2023-03-28T19:19:40.691Z,4.72
2023-03-28T19:22:08.255Z,4.72
2023-03-28T19:24:35.719Z,4.70
2023-03-28T19:27:05.233Z,4.22
2023-03-28T19:29:33.388Z,4.55
2023-03-28T19:32:01.025Z,4.07
2023-03-28T19:34:29.650Z,4.38
2023-03-28T19:36:57.165Z,4.40
2023-03-28T19:39:24.759Z,4.60
2023-03-28T19:41:52.416Z,4.80
2023-03-28T19:44:21.220Z,4.63
2023-03-28T19:47:14.125Z,4.90
2023-03-28T19:49:39.716Z,5.38
2023-03-28T19:52:10.023Z,5.35
2023-03-28T19:54:37.908Z,5.10
2023-03-28T19:57:08.100Z,5.63
2023-03-28T19:59:36.449Z,4.90
2023-03-28T20:02:04.109Z,4.93
2023-03-28T20:04:32.005Z,4.97
2023-03-28T20:06:59.656Z,5.28
2023-03-28T20:09:27.274Z,4.85
2023-03-28T20:11:54.781Z,5.13
2023-03-28T20:14:22.666Z,4.55
2023-03-28T20:16:50.738Z,4.80
2023-03-28T20:19:18.563Z,4.32
2023-03-28T20:21:47.295Z,4.50
2023-03-28T20:24:18.172Z,4.10
2023-03-28T20:26:47.095Z,4.50
2023-03-28T20:29:15.191Z,4.82
2023-03-28T20:31:42.976Z,5.03
2023-03-28T20:34:11.863Z,4.82
2023-03-28T20:36:41.617Z,4.63
2023-03-28T20:39:09.833Z,3.70
2023-03-28T20:41:38.548Z,4.22
2023-03-28T20:44:07.520Z,4.20
2023-03-28T20:46:39.975Z,4.43
2023-03-28T20:49:16.846Z,3.90
2023-03-28T20:51:46.062Z,4.00
2023-03-28T20:54:14.115Z,3.53
2023-03-28T20:56:42.773Z,3.70
2023-03-28T20:59:10.315Z,4.18
2023-03-28T21:01:39.638Z,3.97
2023-03-28T21:04:07.246Z,4.15
2023-03-28T21:06:38.114Z,3.58
2023-03-28T21:09:08.604Z,4.15
2023-03-28T21:11:38.959Z,3.67
2023-03-28T21:14:08.323Z,3.80
2023-03-28T21:16:37.714Z,3.60
2023-03-28T21:19:06.219Z,3.80
2023-03-28T21:21:34.441Z,3.53
2023-03-28T21:24:03.435Z,3.80
2023-03-28T21:26:31.647Z,3.55
2023-03-28T21:28:59.683Z,3.50
2023-03-28T21:31:29.521Z,3.50
2023-03-28T21:33:59.084Z,3.35
2023-03-28T21:36:27.939Z,3.17
2023-03-28T21:38:57.028Z,3.20
2023-03-28T21:41:24.935Z,3.42
2023-03-28T21:43:54.790Z,3.40
2023-03-28T21:46:22.900Z,3.40
2023-03-28T21:48:50.588Z,3.30
2023-03-28T21:51:18.351Z,3.38
2023-03-28T21:53:46.364Z,3.90
2023-03-28T21:56:14.961Z,3.50
2023-03-28T21:58:42.661Z,3.70
2023-03-28T22:01:14.232Z,3.58
2023-03-28T22:03:42.088Z,3.20
2023-03-28T22:06:09.868Z,3.80
2023-03-28T22:08:38.002Z,3.38
2023-03-28T22:11:32.894Z,3.28
2023-03-28T22:14:05.089Z,3.67
2023-03-28T22:16:36.394Z,3.28
2023-03-28T22:19:05.941Z,3.30
2023-03-28T22:21:33.721Z,3.50
2023-03-28T22:24:06.702Z,3.25
2023-03-28T22:26:36.047Z,2.97
2023-03-28T22:29:05.128Z,3.30
2023-03-28T22:31:33.065Z,3.25
2023-03-28T22:34:00.650Z,3.63
2023-03-28T22:36:28.312Z,3.50
2023-03-28T22:38:57.235Z,3.42
2023-03-28T22:41:30.152Z,3.65
2023-03-28T22:43:59.183Z,3.55
2023-03-28T22:46:26.904Z,4.03
2023-03-28T22:48:58.669Z,3.83
2023-03-28T22:51:28.269Z,4.10
2023-03-28T22:54:00.412Z,3.97
2023-03-28T22:56:28.147Z,4.15
2023-03-28T22:58:56.025Z,3.97
2023-03-28T23:01:26.224Z,4.07
2023-03-28T23:03:53.774Z,4.45
2023-03-28T23:06:21.282Z,3.63
2023-03-28T23:08:48.786Z,4.38
2023-03-28T23:11:16.406Z,4.40
2023-03-28T23:13:43.884Z,4.43
2023-03-28T23:16:11.489Z,3.80
2023-03-28T23:18:39.205Z,3.60
2023-03-28T23:21:08.539Z,3.90
2023-03-28T23:23:36.460Z,3.65
2023-03-28T23:26:04.087Z,3.60
2023-03-28T23:28:31.774Z,3.80
2023-03-28T23:30:59.872Z,3.60
2023-03-28T23:33:27.456Z,3.78
2023-03-28T23:35:55.009Z,3.85
2023-03-28T23:38:22.739Z,3.22
2023-03-28T23:40:50.210Z,3.15
2023-03-28T23:43:17.711Z,3.50
2023-03-28T23:45:45.429Z,3.78
2023-03-28T23:48:13.325Z,3.75
2023-03-28T23:50:41.154Z,4.13
2023-03-28T23:53:09.518Z,4.20
2023-03-28T23:55:37.354Z,3.92
2023-03-28T23:58:05.050Z,3.72
